Mullan, Idaho
Current Conditions -  °F | °C
As of 10:30 AM on Saturday 20 Dec 2014 (Local Time) from KMLP Reporting Station
Moderate Snow Moderate Snow  
Wind Chill: 22°   Ceiling: 200
Heat Index: 28°   Visibility: 0.5mi
Dew Point: 24°   Wind: 6mph
Humidity: 85%   Direction: NA
Pressure: 29.77"   Gusts: NA
Location:  47.47°N, 115.8°W
Report Text: KMLP 201830Z AUTO VRB05KT 1/2SM SN FZFG VV002 M02/M04 A2977 RMK AO2 P0001 T10221044
Loading
Personal Weather Stations






























Interactive Weather Map New forecast layout! Learn more

10-Day Weather Forecast

Advertisements
Track Severe Weather on mobile